createdAt,value
2023-05-14T00:00:48.947Z,77.52
2023-05-14T00:04:10.624Z,77.58
2023-05-14T00:07:37.038Z,77.22
2023-05-14T00:11:01.379Z,78.14
2023-05-14T00:14:27.447Z,77.41
2023-05-14T00:17:49.819Z,77.74
2023-05-14T00:21:11.649Z,77.20
2023-05-14T00:24:35.401Z,77.19
2023-05-14T00:27:56.959Z,76.96
2023-05-14T00:31:18.597Z,77.03
2023-05-14T00:34:42.523Z,77.55
2023-05-14T00:38:04.262Z,77.36
2023-05-14T00:41:25.826Z,77.44
2023-05-14T00:44:49.728Z,78.80
2023-05-14T00:48:11.589Z,77.40
2023-05-14T00:51:34.266Z,78.18
2023-05-14T00:54:56.861Z,77.87
2023-05-14T00:58:19.575Z,78.09
2023-05-14T01:01:43.687Z,78.38
2023-05-14T01:05:06.689Z,78.49
2023-05-14T01:09:10.433Z,79.21
2023-05-14T01:12:43.578Z,79.58
2023-05-14T01:16:09.717Z,79.52
2023-05-14T01:19:43.209Z,79.88
2023-05-14T01:23:07.298Z,79.91
2023-05-14T01:26:32.127Z,81.37
2023-05-14T01:30:04.615Z,81.97
2023-05-14T01:33:29.112Z,82.45
2023-05-14T01:36:57.034Z,82.06
2023-05-14T01:40:21.774Z,81.31
2023-05-14T01:43:47.709Z,81.58
2023-05-14T01:47:09.337Z,81.52
2023-05-14T01:50:30.980Z,81.77
2023-05-14T01:53:52.836Z,81.52
2023-05-14T01:57:14.420Z,81.15
2023-05-14T02:00:36.037Z,81.48
2023-05-14T02:04:01.150Z,81.31
2023-05-14T02:07:22.768Z,81.59
2023-05-14T02:10:44.327Z,80.96
2023-05-14T02:14:06.198Z,80.41
2023-05-14T02:17:30.289Z,80.39
2023-05-14T02:20:54.780Z,80.73
2023-05-14T02:24:16.384Z,80.49
2023-05-14T02:27:40.551Z,79.73
2023-05-14T02:31:02.174Z,79.12
2023-05-14T02:34:24.006Z,79.26
2023-05-14T02:37:45.724Z,79.68
2023-05-14T02:41:07.560Z,78.85
2023-05-14T02:44:29.216Z,79.08
2023-05-14T02:47:50.904Z,79.70
2023-05-14T02:51:12.537Z,79.31
2023-05-14T02:54:34.307Z,79.57
2023-05-14T02:57:56.881Z,78.37
2023-05-14T03:01:21.204Z,79.21
2023-05-14T03:04:46.763Z,79.77
2023-05-14T03:08:08.464Z,79.53
2023-05-14T03:11:30.084Z,78.48
2023-05-14T03:14:51.950Z,78.26
2023-05-14T03:18:14.248Z,77.69
2023-05-14T03:21:36.204Z,77.80
2023-05-14T03:25:00.836Z,76.30
2023-05-14T03:28:27.281Z,77.16
2023-05-14T03:31:54.579Z,76.44
2023-05-14T03:35:16.440Z,76.49
2023-05-14T03:38:40.741Z,76.57
2023-05-14T03:42:04.751Z,77.28
2023-05-14T03:45:30.411Z,75.55
2023-05-14T03:48:54.477Z,77.18
2023-05-14T03:52:16.151Z,76.54
2023-05-14T03:55:40.328Z,77.43
2023-05-14T03:59:04.886Z,77.57
2023-05-14T04:02:28.940Z,77.33
2023-05-14T04:05:51.137Z,77.96
2023-05-14T04:09:15.036Z,77.79
2023-05-14T04:12:36.606Z,77.61
2023-05-14T04:15:58.499Z,77.19
2023-05-14T04:19:22.511Z,77.31
2023-05-14T04:22:44.443Z,77.17
2023-05-14T04:26:06.478Z,77.14
2023-05-14T04:29:28.099Z,77.59
2023-05-14T04:32:49.840Z,76.87
2023-05-14T04:36:11.450Z,76.85
2023-05-14T04:39:33.024Z,76.40
2023-05-14T04:42:56.686Z,76.52
2023-05-14T04:46:18.398Z,76.36
2023-05-14T04:49:40.063Z,76.09
2023-05-14T04:53:01.721Z,76.04
2023-05-14T04:56:25.961Z,76.13
2023-05-14T04:59:47.597Z,75.61
2023-05-14T05:03:11.700Z,75.87
2023-05-14T05:06:35.582Z,75.27
2023-05-14T05:09:57.194Z,75.31
2023-05-14T05:13:21.290Z,75.79
2023-05-14T05:16:43.349Z,75.26
2023-05-14T05:20:08.065Z,75.25
2023-05-14T05:23:32.042Z,74.99
2023-05-14T05:26:55.714Z,75.09
2023-05-14T05:30:19.785Z,75.22
2023-05-14T05:33:43.922Z,75.14
2023-05-14T05:37:06.221Z,75.34
2023-05-14T05:40:30.027Z,75.24
2023-05-14T05:43:51.615Z,75.95
2023-05-14T05:47:13.208Z,75.32
2023-05-14T05:50:37.784Z,75.59
2023-05-14T05:53:59.371Z,75.41
2023-05-14T05:57:27.228Z,75.37
2023-05-14T06:00:48.887Z,75.63
2023-05-14T06:04:10.520Z,74.62
2023-05-14T06:07:35.068Z,74.95
2023-05-14T06:10:59.389Z,74.62
2023-05-14T06:14:20.930Z,75.10
2023-05-14T06:17:45.136Z,75.69
2023-05-14T06:21:06.758Z,75.86
2023-05-14T06:24:28.746Z,75.58
2023-05-14T06:27:50.425Z,75.21
2023-05-14T06:31:14.226Z,76.23
2023-05-14T06:34:37.989Z,77.14
2023-05-14T06:37:59.691Z,77.32
2023-05-14T06:41:23.554Z,76.33
2023-05-14T06:44:45.809Z,75.74
2023-05-14T06:48:07.630Z,76.59
2023-05-14T06:51:33.863Z,76.86
2023-05-14T06:54:55.469Z,76.16
2023-05-14T06:58:21.792Z,76.28
2023-05-14T07:01:43.478Z,75.93
2023-05-14T07:05:05.584Z,75.51
2023-05-14T07:08:29.234Z,75.66
2023-05-14T07:11:50.836Z,81.40
2023-05-14T07:15:17.356Z,78.93
2023-05-14T07:18:41.357Z,80.09
2023-05-14T07:22:05.584Z,77.08
2023-05-14T07:25:27.699Z,77.24
2023-05-14T07:28:51.606Z,78.57
2023-05-14T07:32:15.469Z,72.73
2023-05-14T07:35:39.559Z,73.21
2023-05-14T07:39:03.521Z,72.88
2023-05-14T07:42:35.353Z,74.12
2023-05-14T07:45:58.622Z,74.28
2023-05-14T07:49:22.404Z,74.56
2023-05-14T07:52:47.245Z,76.26
2023-05-14T07:56:11.148Z,75.09
2023-05-14T07:59:35.325Z,77.09
2023-05-14T08:02:59.813Z,75.84
2023-05-14T08:06:24.426Z,76.20
2023-05-14T08:09:45.982Z,77.06
2023-05-14T08:13:07.682Z,77.30
2023-05-14T08:16:31.515Z,77.69
2023-05-14T08:19:56.728Z,77.35
2023-05-14T08:23:18.284Z,78.67
2023-05-14T08:26:42.371Z,78.42
2023-05-14T08:30:07.419Z,82.61
2023-05-14T08:33:29.075Z,84.29
2023-05-14T08:36:51.009Z,77.83
2023-05-14T08:40:13.113Z,78.55
2023-05-14T08:43:46.072Z,79.41
2023-05-14T08:47:07.678Z,77.43
2023-05-14T08:50:30.645Z,74.96
2023-05-14T08:53:55.171Z,76.79
2023-05-14T08:57:23.753Z,76.02
2023-05-14T09:00:47.891Z,77.96
2023-05-14T09:04:12.499Z,78.21
2023-05-14T09:07:34.330Z,77.05
2023-05-14T09:10:58.206Z,78.19
2023-05-14T09:14:23.456Z,79.30
2023-05-14T09:17:47.998Z,79.20
2023-05-14T09:21:10.039Z,79.69
2023-05-14T09:24:31.662Z,80.27
2023-05-14T09:27:57.277Z,84.66
2023-05-14T09:31:22.923Z,80.45
2023-05-14T09:34:48.004Z,78.89
2023-05-14T09:38:09.572Z,81.34
2023-05-14T09:41:33.533Z,81.97
2023-05-14T09:44:55.189Z,77.55
2023-05-14T09:48:17.388Z,77.86
2023-05-14T09:51:39.111Z,77.37
2023-05-14T09:55:01.462Z,74.80
2023-05-14T09:58:23.133Z,75.89
2023-05-14T10:01:47.516Z,77.03
2023-05-14T10:05:09.778Z,77.14
2023-05-14T10:08:35.397Z,79.16
2023-05-14T10:12:01.234Z,78.19
2023-05-14T10:15:45.926Z,79.93
2023-05-14T10:19:14.882Z,80.60
2023-05-14T10:22:39.712Z,81.70
2023-05-14T10:26:01.889Z,87.37
2023-05-14T10:29:38.237Z,83.87
2023-05-14T10:33:10.034Z,83.32
2023-05-14T10:36:32.534Z,82.55
2023-05-14T10:39:57.839Z,77.59
2023-05-14T10:43:25.135Z,75.90
2023-05-14T10:46:49.298Z,75.95
2023-05-14T10:50:12.781Z,77.12
2023-05-14T10:53:39.261Z,77.92
2023-05-14T10:57:01.418Z,79.06
2023-05-14T11:00:27.805Z,78.05
2023-05-14T11:03:53.342Z,78.34
2023-05-14T11:07:18.061Z,78.79
2023-05-14T11:10:39.720Z,79.88
2023-05-14T11:14:03.643Z,80.11
2023-05-14T11:17:31.759Z,80.56
2023-05-14T11:20:53.603Z,82.07
2023-05-14T11:24:17.813Z,81.48
2023-05-14T11:27:39.514Z,81.89
2023-05-14T11:31:01.700Z,82.59
2023-05-14T11:34:23.385Z,83.03
2023-05-14T11:37:51.661Z,82.85
2023-05-14T11:41:15.105Z,83.18
2023-05-14T11:44:36.735Z,80.85
2023-05-14T11:47:58.311Z,82.31
2023-05-14T11:51:25.436Z,82.11
2023-05-14T11:54:49.688Z,84.19
2023-05-14T11:58:14.201Z,84.14
2023-05-14T12:01:38.754Z,83.54
2023-05-14T12:05:01.082Z,83.62
2023-05-14T12:08:27.430Z,84.41
2023-05-14T12:11:51.245Z,85.77
2023-05-14T12:15:19.146Z,85.18
2023-05-14T12:18:43.122Z,84.70
2023-05-14T12:22:04.980Z,84.87
2023-05-14T12:25:31.650Z,86.10
2023-05-14T12:29:06.995Z,85.76
2023-05-14T12:32:32.204Z,87.36
2023-05-14T12:35:54.309Z,87.40
2023-05-14T12:39:18.232Z,87.28
2023-05-14T12:42:39.980Z,87.44
2023-05-14T12:46:01.636Z,87.18
2023-05-14T12:49:23.232Z,88.13
2023-05-14T12:52:44.883Z,87.30
2023-05-14T12:56:09.675Z,87.57
2023-05-14T12:59:33.477Z,88.33
2023-05-14T13:02:55.112Z,89.59
2023-05-14T13:06:16.949Z,89.71
2023-05-14T13:09:38.543Z,89.84
2023-05-14T13:13:02.647Z,90.19
2023-05-14T13:16:28.305Z,90.02
2023-05-14T13:19:49.983Z,90.38
2023-05-14T13:23:11.620Z,90.91
2023-05-14T13:26:33.634Z,91.04
2023-05-14T13:29:55.529Z,91.41
2023-05-14T13:33:17.513Z,90.89
2023-05-14T13:36:43.582Z,91.47
2023-05-14T13:40:09.075Z,91.21
2023-05-14T13:43:31.923Z,91.34
2023-05-14T13:46:53.829Z,91.16
2023-05-14T13:50:15.508Z,90.91
2023-05-14T13:53:37.122Z,90.96
2023-05-14T13:57:01.195Z,91.01
2023-05-14T14:00:22.975Z,91.12
2023-05-14T14:03:44.571Z,90.95
2023-05-14T14:07:09.115Z,90.96
2023-05-14T14:10:31.079Z,91.04
2023-05-14T14:13:53.048Z,91.29
2023-05-14T14:17:14.656Z,91.18
2023-05-14T14:20:38.852Z,91.18
2023-05-14T14:24:02.820Z,91.36
2023-05-14T14:27:24.559Z,91.13
2023-05-14T14:30:46.237Z,91.73
2023-05-14T14:34:10.333Z,91.22
2023-05-14T14:37:31.909Z,91.13
2023-05-14T14:40:56.076Z,90.62
2023-05-14T14:44:20.294Z,91.75
2023-05-14T14:47:51.299Z,91.29
2023-05-14T14:51:15.482Z,91.67
2023-05-14T14:54:42.001Z,91.76
2023-05-14T14:58:05.844Z,92.17
2023-05-14T15:01:29.793Z,91.37
2023-05-14T15:04:54.544Z,91.93
2023-05-14T15:08:16.166Z,91.41
2023-05-14T15:11:40.709Z,92.27
2023-05-14T15:15:04.788Z,91.52
2023-05-14T15:18:26.474Z,91.96
2023-05-14T15:21:52.616Z,91.56
2023-05-14T15:25:14.156Z,91.98
2023-05-14T15:28:39.276Z,92.43
2023-05-14T15:32:03.447Z,91.75
2023-05-14T15:35:25.884Z,92.43
2023-05-14T15:38:50.123Z,92.70
2023-05-14T15:42:11.780Z,92.74
2023-05-14T15:45:33.478Z,92.81
2023-05-14T15:48:57.404Z,92.68
2023-05-14T15:52:19.075Z,93.20
2023-05-14T15:55:40.710Z,93.47
2023-05-14T15:59:02.300Z,93.56
2023-05-14T16:02:26.265Z,92.85
2023-05-14T16:05:48.596Z,93.38
2023-05-14T16:09:12.733Z,93.26
2023-05-14T16:12:39.269Z,92.97
2023-05-14T16:16:01.430Z,93.01
2023-05-14T16:19:25.892Z,93.53
2023-05-14T16:22:47.478Z,92.93
2023-05-14T16:26:11.562Z,92.71
2023-05-14T16:29:33.481Z,92.77
2023-05-14T16:32:55.134Z,92.88
2023-05-14T16:36:17.575Z,92.48
2023-05-14T16:39:41.423Z,93.04
2023-05-14T16:43:03.016Z,93.28
2023-05-14T16:46:29.486Z,92.93
2023-05-14T16:49:53.654Z,92.91
2023-05-14T16:53:15.380Z,93.37
2023-05-14T16:56:37.114Z,92.99
2023-05-14T17:00:01.175Z,93.41
2023-05-14T17:03:22.914Z,93.66
2023-05-14T17:06:48.357Z,93.73
2023-05-14T17:10:10.430Z,93.13
2023-05-14T17:13:33.100Z,92.98
2023-05-14T17:16:56.990Z,92.85
2023-05-14T17:20:18.668Z,93.17
2023-05-14T17:23:42.333Z,92.72
2023-05-14T17:27:04.189Z,92.68
2023-05-14T17:30:26.786Z,93.15
2023-05-14T17:33:48.358Z,93.11
2023-05-14T17:37:10.225Z,93.49
2023-05-14T17:40:31.860Z,93.98
2023-05-14T17:43:55.708Z,94.56
2023-05-14T17:47:20.251Z,94.59
2023-05-14T17:50:43.217Z,94.90
2023-05-14T17:54:04.811Z,94.37
2023-05-14T17:57:30.995Z,94.37
2023-05-14T18:00:55.369Z,93.98
2023-05-14T18:04:17.009Z,93.26
2023-05-14T18:07:40.954Z,93.68
2023-05-14T18:11:04.890Z,93.56
2023-05-14T18:14:26.521Z,93.16
2023-05-14T18:17:48.212Z,93.02
2023-05-14T18:21:09.856Z,93.09
2023-05-14T18:24:33.565Z,93.06
2023-05-14T18:27:55.263Z,92.90
2023-05-14T18:31:17.016Z,93.77
2023-05-14T18:34:38.611Z,93.55
2023-05-14T18:38:00.777Z,93.73
2023-05-14T18:41:24.818Z,94.11
2023-05-14T18:44:46.463Z,93.94
2023-05-14T18:48:10.760Z,93.99
2023-05-14T18:51:32.480Z,94.01
2023-05-14T18:54:54.973Z,94.30
2023-05-14T18:58:17.647Z,94.17
2023-05-14T19:01:39.486Z,93.78
2023-05-14T19:05:03.781Z,93.94
2023-05-14T19:08:27.592Z,93.89
2023-05-14T19:11:51.696Z,94.53
2023-05-14T19:15:15.903Z,94.55
2023-05-14T19:18:37.625Z,94.12
2023-05-14T19:21:59.274Z,93.99
2023-05-14T19:25:20.866Z,94.53
2023-05-14T19:28:42.639Z,94.85
2023-05-14T19:32:09.725Z,94.57
2023-05-14T19:35:33.815Z,94.58
2023-05-14T19:38:58.897Z,94.35
2023-05-14T19:42:24.768Z,94.48
2023-05-14T19:45:49.188Z,94.77
2023-05-14T19:49:10.873Z,97.45
2023-05-14T19:52:35.098Z,99.84
2023-05-14T19:56:01.934Z,98.33
2023-05-14T19:59:24.844Z,96.68
2023-05-14T20:02:47.972Z,91.41
2023-05-14T20:06:10.963Z,93.80
2023-05-14T20:09:32.556Z,92.73
2023-05-14T20:12:58.811Z,92.28
2023-05-14T20:16:23.459Z,89.09
2023-05-14T20:19:45.201Z,88.66
2023-05-14T20:23:09.050Z,90.54
2023-05-14T20:26:30.629Z,91.62
2023-05-14T20:29:54.347Z,92.63
2023-05-14T20:33:18.384Z,93.08
2023-05-14T20:36:40.255Z,93.46
2023-05-14T20:40:06.737Z,93.50
2023-05-14T20:43:28.427Z,94.87
2023-05-14T20:46:52.675Z,95.98
2023-05-14T20:50:14.506Z,95.80
2023-05-14T20:53:39.233Z,95.13
2023-05-14T20:57:03.092Z,92.18
2023-05-14T21:00:24.860Z,91.10
2023-05-14T21:03:46.597Z,91.51
2023-05-14T21:07:10.849Z,91.61
2023-05-14T21:10:32.433Z,91.99
2023-05-14T21:13:56.231Z,92.39
2023-05-14T21:17:22.478Z,93.01
2023-05-14T21:20:44.120Z,93.39
2023-05-14T21:24:06.275Z,93.88
2023-05-14T21:27:28.015Z,93.40
2023-05-14T21:30:51.004Z,94.17
2023-05-14T21:34:12.930Z,94.58
2023-05-14T21:37:34.553Z,94.64
2023-05-14T21:41:00.099Z,94.76
2023-05-14T21:44:22.207Z,95.04
2023-05-14T21:47:48.673Z,94.74
2023-05-14T21:51:12.750Z,94.08
2023-05-14T21:54:34.335Z,94.14
2023-05-14T21:57:56.137Z,94.12
2023-05-14T22:01:17.839Z,94.38
2023-05-14T22:04:41.882Z,94.31
2023-05-14T22:08:03.533Z,94.29
2023-05-14T22:11:30.161Z,94.59
2023-05-14T22:14:51.782Z,94.79
2023-05-14T22:18:15.782Z,94.96
2023-05-14T22:21:39.454Z,94.73
2023-05-14T22:25:01.351Z,94.60
2023-05-14T22:28:25.340Z,94.55
2023-05-14T22:31:49.927Z,94.26
2023-05-14T22:35:12.010Z,94.28
2023-05-14T22:38:38.412Z,94.54
2023-05-14T22:42:00.783Z,94.34
2023-05-14T22:45:22.558Z,95.14
2023-05-14T22:48:49.341Z,95.29
2023-05-14T22:52:13.239Z,94.71
2023-05-14T22:55:37.344Z,94.97
2023-05-14T22:59:01.310Z,95.01
2023-05-14T23:02:25.569Z,95.23
2023-05-14T23:05:47.180Z,95.19
2023-05-14T23:09:10.901Z,94.58
2023-05-14T23:12:32.538Z,94.93
2023-05-14T23:15:54.273Z,94.26
2023-05-14T23:19:16.057Z,94.73
2023-05-14T23:22:38.011Z,94.76
2023-05-14T23:25:59.818Z,94.82
2023-05-14T23:29:24.409Z,95.05
2023-05-14T23:32:46.065Z,95.60
2023-05-14T23:36:11.508Z,96.20
2023-05-14T23:39:37.929Z,96.03
2023-05-14T23:43:00.835Z,95.71
2023-05-14T23:46:24.734Z,95.19
2023-05-14T23:49:46.414Z,95.28
2023-05-14T23:53:10.238Z,94.96
2023-05-14T23:56:32.019Z,94.90
2023-05-14T23:59:53.598Z,94.91
